Time;durP1;ratioP1;P1;durP2;ratioP2;P2;SDS_P1;SDS_P2;PMS_P1;PMS_P2;Temp;Humidity;BMP_temperature;BMP_pressure;BME280_temperature;BME280_humidity;BME280_pressure;Samples;Min_cycle;Max_cycle;Signal;HPM_P1;HPM_P2
2024/03/09 00:00:34;;;;;;;;;;;19.70;50.70;;;;;;1504918;78;666;-74
2024/03/09 00:02:37;;;;;;;;;;;19.80;50.70;;;;;;1503552;78;1178;-77
2024/03/09 00:04:38;;;;;;;;;;;19.80;50.70;;;;;;1500627;78;600;-76
2024/03/09 00:06:43;;;;;;;;;;;19.80;50.70;;;;;;1507932;78;845;-76
2024/03/09 00:08:46;;;;;;;;;;;19.80;50.70;;;;;;1497439;77;1528;-76
2024/03/09 00:10:49;;;;;;;;;;;19.80;50.70;;;;;;1497417;78;1926;-75
2024/03/09 00:12:52;;;;;;;;;;;19.80;50.70;;;;;;1500171;78;1148;-76
2024/03/09 00:14:54;;;;;;;;;;;19.80;50.70;;;;;;1500118;78;686;-76
2024/03/09 00:16:56;;;;;;;;;;;19.80;50.70;;;;;;1506716;78;785;-76
2024/03/09 00:18:59;;;;;;;;;;;19.80;50.70;;;;;;1506421;78;758;-77
2024/03/09 00:21:01;;;;;;;;;;;19.80;50.70;;;;;;1501009;78;704;-76
2024/03/09 00:23:03;;;;;;;;;;;19.80;50.70;;;;;;1508794;78;1131;-76
2024/03/09 00:25:04;;;;;;;;;;;19.80;50.70;;;;;;1497724;78;678;-75
2024/03/09 00:27:07;;;;;;;;;;;19.80;50.70;;;;;;1505696;78;745;-76
2024/03/09 00:29:09;;;;;;;;;;;19.70;50.70;;;;;;1512229;78;724;-75
2024/03/09 00:31:11;;;;;;;;;;;19.80;50.70;;;;;;1503875;78;1929;-75
2024/03/09 00:33:13;;;;;;;;;;;19.80;50.70;;;;;;1498421;78;1153;-75
2024/03/09 00:35:15;;;;;;;;;;;19.80;50.70;;;;;;1492826;78;764;-76
2024/03/09 00:37:17;;;;;;;;;;;19.90;50.70;;;;;;1509225;78;753;-77
2024/03/09 00:39:19;;;;;;;;;;;19.80;50.70;;;;;;1502963;78;689;-76
2024/03/09 00:41:21;;;;;;;;;;;19.70;50.70;;;;;;1505155;78;771;-78
2024/03/09 00:43:22;;;;;;;;;;;19.80;50.70;;;;;;1513252;78;622;-77
2024/03/09 00:45:25;;;;;;;;;;;19.70;50.70;;;;;;1507507;78;792;-76
2024/03/09 00:47:27;;;;;;;;;;;19.80;50.70;;;;;;1502177;78;1542;-76
2024/03/09 00:49:31;;;;;;;;;;;19.80;50.70;;;;;;1506107;78;680;-77
2024/03/09 00:51:33;;;;;;;;;;;19.80;50.70;;;;;;1498560;78;1925;-78
2024/03/09 00:53:35;;;;;;;;;;;19.80;50.70;;;;;;1500732;78;738;-76
2024/03/09 00:55:37;;;;;;;;;;;19.80;50.70;;;;;;1494984;78;722;-76
2024/03/09 00:57:39;;;;;;;;;;;19.70;50.70;;;;;;1495232;78;741;-76
2024/03/09 00:59:41;;;;;;;;;;;19.80;50.70;;;;;;1497876;78;815;-76
2024/03/09 01:01:43;;;;;;;;;;;19.80;50.70;;;;;;1507484;78;1132;-77
2024/03/09 01:03:45;;;;;;;;;;;19.70;50.70;;;;;;1492780;78;743;-76
2024/03/09 01:05:47;;;;;;;;;;;19.70;50.70;;;;;;1506513;78;732;-77
2024/03/09 01:07:52;;;;;;;;;;;19.80;50.70;;;;;;1498997;78;682;-77
2024/03/09 01:09:53;;;;;;;;;;;19.80;50.70;;;;;;1501591;78;692;-76
2024/03/09 01:11:55;;;;;;;;;;;19.80;50.70;;;;;;1505705;78;1957;-76
2024/03/09 01:13:57;;;;;;;;;;;19.80;50.70;;;;;;1496039;78;857;-77
2024/03/09 01:15:59;;;;;;;;;;;19.80;50.70;;;;;;1497582;78;669;-76
2024/03/09 01:18:02;;;;;;;;;;;19.70;50.70;;;;;;1503511;78;733;-75
2024/03/09 01:20:06;;;;;;;;;;;19.80;50.70;;;;;;1507343;78;714;-74
2024/03/09 01:22:08;;;;;;;;;;;19.80;50.70;;;;;;1495574;78;1153;-77
2024/03/09 01:24:09;;;;;;;;;;;19.70;50.70;;;;;;1498122;78;781;-76
2024/03/09 01:26:13;;;;;;;;;;;19.70;50.70;;;;;;1502887;78;761;-77
2024/03/09 01:28:15;;;;;;;;;;;19.70;50.70;;;;;;1497526;78;748;-77
2024/03/09 01:30:17;;;;;;;;;;;19.80;50.70;;;;;;1497584;78;697;-77
2024/03/09 01:32:19;;;;;;;;;;;19.90;50.80;;;;;;1509154;78;1945;-76
2024/03/09 01:34:21;;;;;;;;;;;19.70;50.70;;;;;;1496044;78;673;-77
2024/03/09 01:36:24;;;;;;;;;;;19.80;50.70;;;;;;1494978;78;717;-76
2024/03/09 01:38:26;;;;;;;;;;;19.80;50.70;;;;;;1495543;78;727;-77
2024/03/09 01:40:27;;;;;;;;;;;19.70;50.70;;;;;;1497347;78;698;-76
2024/03/09 01:42:29;;;;;;;;;;;19.80;50.70;;;;;;1502056;78;1700;-76
2024/03/09 01:44:32;;;;;;;;;;;19.80;50.70;;;;;;1505520;77;757;-76
2024/03/09 01:46:33;;;;;;;;;;;19.70;50.70;;;;;;1504632;78;793;-77
2024/03/09 01:48:35;;;;;;;;;;;19.80;50.70;;;;;;1498971;78;737;-76
2024/03/09 01:50:37;;;;;;;;;;;19.80;50.70;;;;;;1506464;78;689;-76
2024/03/09 01:52:40;;;;;;;;;;;19.80;50.70;;;;;;1506793;78;1928;-77
2024/03/09 01:54:42;;;;;;;;;;;19.80;50.70;;;;;;1505382;78;728;-74
2024/03/09 01:56:43;;;;;;;;;;;19.80;50.70;;;;;;1506334;78;790;-76
2024/03/09 01:58:45;;;;;;;;;;;19.70;50.70;;;;;;1506260;78;755;-76
2024/03/09 02:00:54;;;;;;;;;;;19.80;50.70;;;;;;1496639;78;754;-77
2024/03/09 02:02:54;;;;;;;;;;;19.80;50.70;;;;;;1501792;78;1191;-76
2024/03/09 02:04:56;;;;;;;;;;;19.80;50.80;;;;;;1501773;78;1542;-76
2024/03/09 02:06:58;;;;;;;;;;;19.70;50.70;;;;;;1493924;78;737;-77
2024/03/09 02:09:07;;;;;;;;;;;19.70;50.80;;;;;;1495457;78;708;-77
2024/03/09 02:11:04;;;;;;;;;;;19.70;50.70;;;;;;1499355;78;1817;-75
2024/03/09 02:13:06;;;;;;;;;;;19.90;50.80;;;;;;1498387;78;1943;-76
2024/03/09 02:15:11;;;;;;;;;;;19.70;50.70;;;;;;1498802;78;771;-76
2024/03/09 02:17:12;;;;;;;;;;;19.80;50.70;;;;;;1504080;78;1180;-76
2024/03/09 02:19:14;;;;;;;;;;;19.70;50.70;;;;;;1492499;78;740;-75
2024/03/09 02:21:16;;;;;;;;;;;19.80;50.70;;;;;;1503084;78;776;-75
2024/03/09 02:23:20;;;;;;;;;;;19.70;50.70;;;;;;1497342;78;1086;-75
2024/03/09 02:25:22;;;;;;;;;;;19.70;50.70;;;;;;1499733;78;705;-74
2024/03/09 02:27:27;;;;;;;;;;;19.70;50.70;;;;;;1501183;78;823;-77
2024/03/09 02:29:29;;;;;;;;;;;19.70;50.70;;;;;;1505273;78;694;-77
2024/03/09 02:31:31;;;;;;;;;;;19.80;50.70;;;;;;1501024;78;1933;-73
2024/03/09 02:33:33;;;;;;;;;;;19.80;50.70;;;;;;1499768;78;644;-75
2024/03/09 02:35:35;;;;;;;;;;;19.70;50.70;;;;;;1499446;78;771;-77
2024/03/09 02:37:37;;;;;;;;;;;19.70;50.70;;;;;;1504982;78;744;-76
2024/03/09 02:39:41;;;;;;;;;;;19.70;50.70;;;;;;1506595;78;1553;-76
2024/03/09 02:41:43;;;;;;;;;;;19.70;50.70;;;;;;1499932;78;1140;-75
2024/03/09 02:43:46;;;;;;;;;;;19.80;50.70;;;;;;1497019;78;774;-76
2024/03/09 02:45:48;;;;;;;;;;;19.70;50.70;;;;;;1493022;78;732;-75
2024/03/09 02:47:50;;;;;;;;;;;19.70;50.70;;;;;;1504049;78;823;-74
2024/03/09 02:49:54;;;;;;;;;;;19.70;50.70;;;;;;1502026;78;756;-76
2024/03/09 02:51:55;;;;;;;;;;;19.80;50.70;;;;;;1497446;78;1932;-75
2024/03/09 02:53:57;;;;;;;;;;;19.70;50.70;;;;;;1510508;78;761;-77
2024/03/09 02:55:59;;;;;;;;;;;19.70;50.70;;;;;;1502919;78;827;-76
2024/03/09 02:58:01;;;;;;;;;;;19.70;50.70;;;;;;1505700;78;639;-76
2024/03/09 03:00:06;;;;;;;;;;;19.70;50.70;;;;;;1500434;78;727;-77
2024/03/09 03:03:45;;;;;;;;;;;19.70;50.70;;;;;;1497789;78;1652;-77
2024/03/09 03:04:11;;;;;;;;;;;19.80;50.70;;;;;;1502303;78;961;-76
2024/03/09 03:06:14;;;;;;;;;;;19.70;50.70;;;;;;1494592;78;672;-77
2024/03/09 03:08:16;;;;;;;;;;;19.70;50.70;;;;;;1492428;78;762;-77
2024/03/09 03:10:18;;;;;;;;;;;19.80;50.70;;;;;;1510118;78;888;-77
2024/03/09 03:12:20;;;;;;;;;;;19.80;50.60;;;;;;1501679;78;1977;-75
2024/03/09 03:14:22;;;;;;;;;;;19.80;50.70;;;;;;1505728;78;739;-77
2024/03/09 03:16:27;;;;;;;;;;;19.80;50.70;;;;;;1499129;78;690;-76
2024/03/09 03:18:29;;;;;;;;;;;19.70;50.60;;;;;;1495322;78;787;-76
2024/03/09 03:20:31;;;;;;;;;;;19.80;50.60;;;;;;1499786;78;718;-76
2024/03/09 03:22:38;;;;;;;;;;;19.80;50.60;;;;;;1507165;78;1179;-73
2024/03/09 03:24:38;;;;;;;;;;;19.70;50.70;;;;;;1503083;78;960;-76
2024/03/09 03:26:40;;;;;;;;;;;19.70;50.60;;;;;;1493261;78;691;-75
2024/03/09 03:28:44;;;;;;;;;;;19.70;50.60;;;;;;1500529;78;736;-73
2024/03/09 03:30:46;;;;;;;;;;;19.70;50.60;;;;;;1502600;78;783;-76
2024/03/09 03:32:50;;;;;;;;;;;19.70;50.60;;;;;;1510719;78;1944;-76
2024/03/09 03:34:53;;;;;;;;;;;19.80;50.70;;;;;;1496496;78;1631;-75
2024/03/09 03:36:54;;;;;;;;;;;19.80;50.60;;;;;;1500795;78;1692;-77
2024/03/09 03:38:56;;;;;;;;;;;19.80;50.70;;;;;;1498918;78;679;-74
2024/03/09 03:40:58;;;;;;;;;;;19.70;50.60;;;;;;1498245;78;706;-76
2024/03/09 03:43:02;;;;;;;;;;;19.70;50.70;;;;;;1506505;78;1144;-74
2024/03/09 03:45:06;;;;;;;;;;;19.70;50.60;;;;;;1503604;78;1643;-76
2024/03/09 03:47:07;;;;;;;;;;;19.70;50.60;;;;;;1496700;77;1820;-76
2024/03/09 03:49:10;;;;;;;;;;;19.70;50.70;;;;;;1499094;78;783;-76
2024/03/09 03:51:13;;;;;;;;;;;19.70;50.70;;;;;;1515695;78;801;-76
2024/03/09 03:53:15;;;;;;;;;;;19.70;50.60;;;;;;1505457;78;1942;-77
2024/03/09 03:55:17;;;;;;;;;;;19.70;50.70;;;;;;1495228;78;787;-76
2024/03/09 03:57:18;;;;;;;;;;;19.70;50.70;;;;;;1508374;78;734;-76
2024/03/09 03:59:20;;;;;;;;;;;19.80;50.60;;;;;;1507330;78;805;-76
2024/03/09 04:01:23;;;;;;;;;;;19.70;50.60;;;;;;1509306;78;704;-73
2024/03/09 04:03:31;;;;;;;;;;;19.70;50.60;;;;;;1494599;78;785;-77
2024/03/09 04:05:29;;;;;;;;;;;19.70;50.60;;;;;;1500910;78;1183;-75
2024/03/09 04:07:31;;;;;;;;;;;19.70;50.60;;;;;;1498820;78;677;-74
2024/03/09 04:09:33;;;;;;;;;;;19.80;50.60;;;;;;1497327;78;721;-77
2024/03/09 04:11:35;;;;;;;;;;;19.70;50.60;;;;;;1511548;78;1186;-77
2024/03/09 04:13:37;;;;;;;;;;;19.70;50.60;;;;;;1507338;78;1942;-77
2024/03/09 04:15:40;;;;;;;;;;;19.70;50.60;;;;;;1497361;77;645;-76
2024/03/09 04:17:42;;;;;;;;;;;19.70;50.70;;;;;;1510105;78;595;-74
2024/03/09 04:19:44;;;;;;;;;;;19.80;50.60;;;;;;1503569;78;738;-76
2024/03/09 04:21:46;;;;;;;;;;;19.70;50.60;;;;;;1503347;78;1133;-77
2024/03/09 04:23:48;;;;;;;;;;;19.80;50.60;;;;;;1504409;78;690;-77
2024/03/09 04:25:53;;;;;;;;;;;19.70;50.60;;;;;;1496578;78;705;-77
2024/03/09 04:27:55;;;;;;;;;;;19.70;50.60;;;;;;1509222;78;1151;-76
2024/03/09 04:29:57;;;;;;;;;;;19.80;50.50;;;;;;1505093;78;891;-76
2024/03/09 04:32:00;;;;;;;;;;;19.70;50.60;;;;;;1503099;78;1799;-76
2024/03/09 04:34:02;;;;;;;;;;;19.80;50.60;;;;;;1495071;78;1918;-75
2024/03/09 04:36:06;;;;;;;;;;;19.80;50.60;;;;;;1501565;78;733;-75
2024/03/09 04:38:08;;;;;;;;;;;19.80;50.60;;;;;;1502323;78;715;-76
2024/03/09 04:40:20;;;;;;;;;;;19.70;50.60;;;;;;1499854;78;739;-74
2024/03/09 04:42:13;;;;;;;;;;;19.70;50.50;;;;;;1501301;77;1429;-77
2024/03/09 04:44:16;;;;;;;;;;;19.70;50.60;;;;;;1499998;78;728;-76
2024/03/09 04:46:18;;;;;;;;;;;19.70;50.60;;;;;;1509313;78;729;-74
2024/03/09 04:48:20;;;;;;;;;;;19.70;50.60;;;;;;1499834;78;815;-75
2024/03/09 04:50:22;;;;;;;;;;;19.70;50.60;;;;;;1500172;78;781;-76
2024/03/09 04:52:24;;;;;;;;;;;19.70;50.60;;;;;;1512503;78;1953;-77
2024/03/09 04:54:26;;;;;;;;;;;19.70;50.60;;;;;;1495526;78;699;-76
2024/03/09 04:56:28;;;;;;;;;;;19.70;50.60;;;;;;1492815;78;687;-77
2024/03/09 04:58:30;;;;;;;;;;;19.70;50.60;;;;;;1503152;78;773;-76
2024/03/09 05:00:32;;;;;;;;;;;19.70;50.60;;;;;;1504440;78;689;-77
2024/03/09 05:02:33;;;;;;;;;;;19.70;50.60;;;;;;1502930;78;1098;-75
2024/03/09 05:04:36;;;;;;;;;;;19.70;50.60;;;;;;1498502;78;702;-76
2024/03/09 05:06:41;;;;;;;;;;;19.70;50.60;;;;;;1506719;78;716;-77
2024/03/09 05:08:44;;;;;;;;;;;19.70;50.60;;;;;;1496251;78;1715;-74
2024/03/09 05:10:45;;;;;;;;;;;19.70;50.60;;;;;;1498489;78;1716;-76
2024/03/09 05:12:53;;;;;;;;;;;19.70;50.60;;;;;;1498174;78;1946;-77
2024/03/09 05:14:54;;;;;;;;;;;19.70;50.60;;;;;;1500168;78;1121;-77
2024/03/09 05:16:56;;;;;;;;;;;19.80;50.60;;;;;;1492955;78;701;-76
2024/03/09 05:18:58;;;;;;;;;;;19.70;50.60;;;;;;1493686;78;699;-77
2024/03/09 05:21:00;;;;;;;;;;;19.70;50.60;;;;;;1497512;78;722;-77
2024/03/09 05:23:07;;;;;;;;;;;19.70;50.60;;;;;;1498030;78;1165;-78
2024/03/09 05:25:12;;;;;;;;;;;19.80;50.60;;;;;;1502673;78;1090;-77
2024/03/09 05:27:14;;;;;;;;;;;19.70;50.70;;;;;;1493562;78;761;-77
2024/03/09 05:29:16;;;;;;;;;;;19.70;50.60;;;;;;1500269;78;1680;-77
2024/03/09 05:31:27;;;;;;;;;;;19.70;50.50;;;;;;1492106;78;734;-73
2024/03/09 05:33:29;;;;;;;;;;;19.80;50.60;;;;;;1501354;78;1914;-77
2024/03/09 05:35:30;;;;;;;;;;;19.70;50.60;;;;;;1505098;78;758;-79
2024/03/09 05:37:32;;;;;;;;;;;19.70;50.60;;;;;;1494977;78;744;-77
2024/03/09 05:39:37;;;;;;;;;;;19.70;50.60;;;;;;1498745;78;737;-76
2024/03/09 05:41:39;;;;;;;;;;;19.70;50.50;;;;;;1502684;78;1187;-76
2024/03/09 05:43:42;;;;;;;;;;;19.70;50.60;;;;;;1507081;78;748;-76
2024/03/09 05:45:44;;;;;;;;;;;19.70;50.60;;;;;;1500676;78;705;-76
2024/03/09 05:47:48;;;;;;;;;;;19.70;50.50;;;;;;1497509;78;671;-75
2024/03/09 05:49:50;;;;;;;;;;;19.70;50.60;;;;;;1504785;78;1032;-75
2024/03/09 05:51:52;;;;;;;;;;;19.70;50.50;;;;;;1501752;78;1168;-74
2024/03/09 05:53:53;;;;;;;;;;;19.70;50.60;;;;;;1508338;78;1957;-77
2024/03/09 05:55:55;;;;;;;;;;;19.70;50.60;;;;;;1501763;78;691;-77
2024/03/09 05:57:57;;;;;;;;;;;19.70;50.50;;;;;;1499975;78;657;-76
2024/03/09 05:59:59;;;;;;;;;;;19.70;50.50;;;;;;1497878;78;744;-76
2024/03/09 06:02:02;;;;;;;;;;;19.80;50.50;;;;;;1505666;78;1194;-76
2024/03/09 06:04:04;;;;;;;;;;;19.70;50.60;;;;;;1499909;78;646;-77
2024/03/09 06:06:07;;;;;;;;;;;19.70;50.60;;;;;;1508433;78;735;-77
2024/03/09 06:08:09;;;;;;;;;;;19.70;50.50;;;;;;1500710;78;624;-76
2024/03/09 06:10:14;;;;;;;;;;;19.70;50.60;;;;;;1501276;78;952;-78
2024/03/09 06:12:15;;;;;;;;;;;19.70;50.60;;;;;;1498960;78;1613;-75
2024/03/09 06:14:20;;;;;;;;;;;19.70;50.60;;;;;;1509481;78;1927;-76
2024/03/09 06:16:20;;;;;;;;;;;19.80;50.60;;;;;;1497746;78;1624;-76
2024/03/09 06:18:23;;;;;;;;;;;19.70;50.60;;;;;;1493986;78;704;-77
2024/03/09 06:20:34;;;;;;;;;;;19.70;50.50;;;;;;1496968;78;668;-77
2024/03/09 06:22:34;;;;;;;;;;;19.70;50.60;;;;;;1498745;78;1404;-77
2024/03/09 06:24:33;;;;;;;;;;;19.70;50.60;;;;;;1507021;78;1621;-77
2024/03/09 06:26:35;;;;;;;;;;;19.80;50.60;;;;;;1498381;78;736;-76
2024/03/09 06:28:43;;;;;;;;;;;19.70;50.60;;;;;;1503094;78;734;-77
2024/03/09 06:30:41;;;;;;;;;;;19.80;50.60;;;;;;1495612;78;1454;-76
2024/03/09 06:32:44;;;;;;;;;;;19.70;50.60;;;;;;1500969;78;1193;-76
2024/03/09 06:34:47;;;;;;;;;;;19.70;50.50;;;;;;1493394;78;1914;-77
2024/03/09 06:36:50;;;;;;;;;;;19.70;50.50;;;;;;1509981;78;772;-78
2024/03/09 06:38:52;;;;;;;;;;;19.70;50.50;;;;;;1506245;78;764;-77
2024/03/09 06:40:54;;;;;;;;;;;19.70;50.50;;;;;;1502902;77;738;-76
2024/03/09 06:42:58;;;;;;;;;;;19.80;50.60;;;;;;1498594;78;1129;-77
2024/03/09 06:45:00;;;;;;;;;;;19.70;50.50;;;;;;1495379;78;951;-75
2024/03/09 06:47:02;;;;;;;;;;;19.70;50.50;;;;;;1504197;78;671;-75
2024/03/09 06:49:05;;;;;;;;;;;19.70;50.60;;;;;;1492340;78;703;-75
2024/03/09 06:51:07;;;;;;;;;;;19.70;50.60;;;;;;1502356;78;677;-77
2024/03/09 06:53:08;;;;;;;;;;;19.70;50.50;;;;;;1496330;78;1962;-77
2024/03/09 06:55:12;;;;;;;;;;;19.80;50.50;;;;;;1503670;78;680;-78
2024/03/09 06:57:15;;;;;;;;;;;19.70;50.50;;;;;;1499186;78;700;-75
2024/03/09 06:59:17;;;;;;;;;;;19.80;50.50;;;;;;1502604;78;701;-73
2024/03/09 07:01:24;;;;;;;;;;;19.70;50.50;;;;;;1500407;78;665;-77
2024/03/09 07:03:25;;;;;;;;;;;19.70;50.60;;;;;;1503724;78;1147;-72
2024/03/09 07:05:37;;;;;;;;;;;19.70;50.50;;;;;;1502103;78;602;-78
2024/03/09 07:07:41;;;;;;;;;;;19.70;50.50;;;;;;1500521;78;1399;-77
2024/03/09 07:09:49;;;;;;;;;;;19.70;50.50;;;;;;1496116;78;741;-75
2024/03/09 07:11:47;;;;;;;;;;;19.70;50.50;;;;;;1500920;78;1605;-77
2024/03/09 07:13:48;;;;;;;;;;;19.70;50.50;;;;;;1504284;78;1934;-77
2024/03/09 07:15:50;;;;;;;;;;;19.80;50.50;;;;;;1496431;78;638;-77
2024/03/09 07:17:57;;;;;;;;;;;19.70;50.50;;;;;;1505082;78;845;-77
2024/03/09 07:19:56;;;;;;;;;;;19.80;50.50;;;;;;1497812;78;824;-76
2024/03/09 07:21:58;;;;;;;;;;;19.70;50.50;;;;;;1510798;78;1175;-77
2024/03/09 07:24:00;;;;;;;;;;;19.70;50.50;;;;;;1500807;78;749;-77
2024/03/09 07:26:03;;;;;;;;;;;19.70;50.50;;;;;;1492055;78;744;-77
2024/03/09 07:28:05;;;;;;;;;;;19.70;50.50;;;;;;1501046;78;703;-74
2024/03/09 07:30:09;;;;;;;;;;;19.70;50.40;;;;;;1505975;78;689;-75
2024/03/09 07:32:11;;;;;;;;;;;19.70;50.40;;;;;;1499354;78;1181;-78
2024/03/09 07:34:17;;;;;;;;;;;19.70;50.50;;;;;;1498951;78;1934;-77
2024/03/09 07:36:17;;;;;;;;;;;19.70;50.50;;;;;;1502822;78;1103;-77
2024/03/09 07:38:20;;;;;;;;;;;19.80;50.50;;;;;;1501104;78;682;-77
2024/03/09 07:40:24;;;;;;;;;;;19.70;50.40;;;;;;1510540;78;748;-76
2024/03/09 07:42:26;;;;;;;;;;;19.70;50.50;;;;;;1498485;78;1188;-77
2024/03/09 07:44:31;;;;;;;;;;;19.80;50.50;;;;;;1497314;78;691;-79
2024/03/09 07:46:31;;;;;;;;;;;19.70;50.40;;;;;;1502327;78;1624;-75
2024/03/09 07:48:34;;;;;;;;;;;19.70;50.40;;;;;;1497212;78;856;-77
2024/03/09 07:50:36;;;;;;;;;;;19.70;50.40;;;;;;1497862;78;800;-77
2024/03/09 07:52:37;;;;;;;;;;;19.80;50.50;;;;;;1502952;78;1161;-73
2024/03/09 07:54:39;;;;;;;;;;;19.70;50.40;;;;;;1495630;78;1945;-77
2024/03/09 07:56:41;;;;;;;;;;;19.70;50.40;;;;;;1504272;78;910;-76
2024/03/09 07:58:44;;;;;;;;;;;19.70;50.40;;;;;;1495943;78;920;-77
2024/03/09 08:00:47;;;;;;;;;;;19.70;50.50;;;;;;1500750;78;755;-77
2024/03/09 08:02:49;;;;;;;;;;;19.70;50.50;;;;;;1497586;78;1137;-77
2024/03/09 08:04:52;;;;;;;;;;;19.70;50.50;;;;;;1514539;78;669;-78
2024/03/09 08:06:55;;;;;;;;;;;19.70;50.50;;;;;;1500996;78;960;-76
2024/03/09 08:08:57;;;;;;;;;;;19.70;50.50;;;;;;1505481;78;715;-75
2024/03/09 08:10:58;;;;;;;;;;;19.70;50.40;;;;;;1500708;77;773;-76
2024/03/09 08:13:00;;;;;;;;;;;19.70;50.50;;;;;;1497035;78;1160;-76
2024/03/09 08:15:04;;;;;;;;;;;19.70;50.50;;;;;;1504655;78;1952;-78
2024/03/09 08:17:07;;;;;;;;;;;19.70;50.50;;;;;;1494387;78;1552;-75
2024/03/09 08:19:09;;;;;;;;;;;19.70;50.50;;;;;;1501331;78;701;-75
2024/03/09 08:21:13;;;;;;;;;;;19.80;50.50;;;;;;1498138;78;732;-76
2024/03/09 08:23:15;;;;;;;;;;;19.70;50.50;;;;;;1496596;78;1104;-78
2024/03/09 08:25:17;;;;;;;;;;;19.70;50.50;;;;;;1502386;78;735;-77
2024/03/09 08:27:19;;;;;;;;;;;19.70;50.50;;;;;;1496910;78;736;-77
2024/03/09 08:29:21;;;;;;;;;;;19.70;50.50;;;;;;1507333;78;730;-78
2024/03/09 08:31:24;;;;;;;;;;;19.70;50.50;;;;;;1505332;78;692;-77
2024/03/09 08:33:26;;;;;;;;;;;19.80;50.50;;;;;;1505716;78;1140;-77
2024/03/09 08:35:29;;;;;;;;;;;19.70;50.50;;;;;;1504177;78;1942;-79
2024/03/09 08:37:31;;;;;;;;;;;19.80;50.50;;;;;;1494996;78;710;-78
2024/03/09 08:39:33;;;;;;;;;;;19.80;50.60;;;;;;1500758;78;722;-78
2024/03/09 08:41:35;;;;;;;;;;;19.80;50.60;;;;;;1500158;78;1130;-76
2024/03/09 08:43:37;;;;;;;;;;;19.80;50.60;;;;;;1502851;78;760;-75
2024/03/09 08:45:42;;;;;;;;;;;19.80;50.60;;;;;;1501937;78;783;-76
2024/03/09 08:47:43;;;;;;;;;;;19.80;50.60;;;;;;1505075;78;966;-77
2024/03/09 08:49:45;;;;;;;;;;;19.80;50.70;;;;;;1501611;78;894;-77
2024/03/09 08:51:47;;;;;;;;;;;19.80;50.70;;;;;;1504997;78;1165;-77
2024/03/09 08:53:49;;;;;;;;;;;19.90;50.80;;;;;;1506459;78;1946;-77
2024/03/09 08:55:51;;;;;;;;;;;19.80;50.70;;;;;;1500840;78;715;-78
2024/03/09 08:57:53;;;;;;;;;;;19.80;50.70;;;;;;1498204;78;715;-74
2024/03/09 08:59:59;;;;;;;;;;;19.80;50.70;;;;;;1496027;78;735;-76
2024/03/09 09:01:58;;;;;;;;;;;19.90;50.80;;;;;;1504881;78;1154;-77
2024/03/09 09:04:03;;;;;;;;;;;19.80;50.70;;;;;;1502037;78;776;-77
2024/03/09 09:06:04;;;;;;;;;;;19.90;50.80;;;;;;1506287;78;1648;-78
2024/03/09 09:08:06;;;;;;;;;;;19.90;50.90;;;;;;1507517;78;716;-77
2024/03/09 09:10:20;;;;;;;;;;;19.90;50.80;;;;;;1500824;78;739;-77
2024/03/09 09:12:20;;;;;;;;;;;19.90;50.90;;;;;;1497531;78;1721;-77
2024/03/09 09:14:23;;;;;;;;;;;19.90;50.90;;;;;;1506905;78;1936;-78
2024/03/09 09:16:25;;;;;;;;;;;19.90;51.00;;;;;;1496591;78;666;-77
2024/03/09 09:18:27;;;;;;;;;;;20.00;51.00;;;;;;1493940;78;727;-78
2024/03/09 09:20:29;;;;;;;;;;;19.90;50.90;;;;;;1502398;78;719;-77
2024/03/09 09:22:31;;;;;;;;;;;20.00;51.00;;;;;;1500869;78;1169;-77
2024/03/09 09:24:36;;;;;;;;;;;20.00;51.00;;;;;;1495529;78;721;-78
2024/03/09 09:26:38;;;;;;;;;;;20.00;51.00;;;;;;1495770;78;668;-77
2024/03/09 09:28:40;;;;;;;;;;;20.00;51.00;;;;;;1508319;78;653;-77
2024/03/09 09:30:44;;;;;;;;;;;20.00;51.00;;;;;;1505797;78;706;-76
2024/03/09 09:32:45;;;;;;;;;;;19.90;51.00;;;;;;1502174;78;1788;-77
2024/03/09 09:34:47;;;;;;;;;;;20.00;50.90;;;;;;1502844;78;1945;-77
2024/03/09 09:36:49;;;;;;;;;;;20.00;51.00;;;;;;1509222;78;913;-77
2024/03/09 09:38:51;;;;;;;;;;;20.00;50.90;;;;;;1503911;78;682;-77
2024/03/09 09:40:54;;;;;;;;;;;20.00;51.00;;;;;;1506388;78;673;-77
2024/03/09 09:42:56;;;;;;;;;;;20.00;50.90;;;;;;1500456;78;1142;-77
2024/03/09 09:44:58;;;;;;;;;;;20.00;50.90;;;;;;1497976;78;727;-77
2024/03/09 09:47:00;;;;;;;;;;;20.00;50.80;;;;;;1499157;78;768;-77
2024/03/09 09:49:02;;;;;;;;;;;20.10;51.00;;;;;;1494941;78;739;-77
2024/03/09 09:51:05;;;;;;;;;;;20.10;51.00;;;;;;1502835;78;741;-77
2024/03/09 09:53:07;;;;;;;;;;;20.00;50.90;;;;;;1499605;78;1129;-77
2024/03/09 09:55:12;;;;;;;;;;;20.00;50.80;;;;;;1498342;78;1924;-78
2024/03/09 09:57:14;;;;;;;;;;;20.00;50.90;;;;;;1511309;78;1494;-77
2024/03/09 09:59:17;;;;;;;;;;;20.10;51.00;;;;;;1495638;78;736;-73
2024/03/09 10:01:20;;;;;;;;;;;20.10;50.90;;;;;;1506513;78;626;-77
2024/03/09 10:03:23;;;;;;;;;;;20.10;51.00;;;;;;1500603;78;1132;-77
2024/03/09 10:05:26;;;;;;;;;;;20.10;51.00;;;;;;1494970;78;731;-77
2024/03/09 10:07:27;;;;;;;;;;;20.10;50.90;;;;;;1498651;78;711;-77
2024/03/09 10:09:30;;;;;;;;;;;20.00;50.70;;;;;;1505690;77;1559;-76
2024/03/09 10:11:32;;;;;;;;;;;20.00;50.70;;;;;;1508966;78;1104;-78
2024/03/09 10:13:34;;;;;;;;;;;20.10;50.90;;;;;;1510307;78;730;-77
2024/03/09 10:15:36;;;;;;;;;;;20.10;50.90;;;;;;1504155;78;1948;-75
2024/03/09 10:17:40;;;;;;;;;;;20.00;50.80;;;;;;1505314;78;697;-77
2024/03/09 10:19:42;;;;;;;;;;;20.10;50.90;;;;;;1497663;78;873;-75
2024/03/09 10:21:45;;;;;;;;;;;20.00;50.80;;;;;;1485807;78;1174;-77
2024/03/09 10:23:47;;;;;;;;;;;20.20;50.90;;;;;;1478270;79;744;-76
2024/03/09 10:25:49;;;;;;;;;;;20.10;50.80;;;;;;1478472;79;1135;-73
2024/03/09 10:27:54;;;;;;;;;;;20.10;50.90;;;;;;1498771;78;710;-77
2024/03/09 10:30:06;;;;;;;;;;;20.10;50.90;;;;;;1494570;78;943;-76
2024/03/09 10:32:07;;;;;;;;;;;20.10;50.80;;;;;;1504917;78;1578;-78
2024/03/09 10:34:14;;;;;;;;;;;20.10;50.80;;;;;;1493395;78;720;-75
2024/03/09 10:36:14;;;;;;;;;;;20.10;50.70;;;;;;1502693;78;1922;-77
2024/03/09 10:38:18;;;;;;;;;;;20.10;50.80;;;;;;1486752;78;1276;-77
2024/03/09 10:40:20;;;;;;;;;;;20.10;50.70;;;;;;1503636;78;773;-78
2024/03/09 10:42:22;;;;;;;;;;;20.10;50.80;;;;;;1499935;78;1094;-77
2024/03/09 10:44:24;;;;;;;;;;;20.10;50.70;;;;;;1506516;78;718;-75
2024/03/09 10:46:29;;;;;;;;;;;20.10;50.70;;;;;;1507371;78;809;-74
2024/03/09 10:48:31;;;;;;;;;;;20.10;50.70;;;;;;1494535;78;763;-77
2024/03/09 10:50:34;;;;;;;;;;;20.10;50.70;;;;;;1500729;78;774;-76
2024/03/09 10:52:37;;;;;;;;;;;20.10;50.70;;;;;;1502976;77;1179;-74
2024/03/09 10:54:45;;;;;;;;;;;20.10;50.70;;;;;;1497432;78;1950;-77
2024/03/09 10:56:51;;;;;;;;;;;20.20;50.70;;;;;;1497194;78;724;-75
2024/03/09 10:58:53;;;;;;;;;;;20.10;50.70;;;;;;1495743;78;1640;-77
2024/03/09 11:00:55;;;;;;;;;;;20.10;50.70;;;;;;1503615;78;788;-74
2024/03/09 11:02:57;;;;;;;;;;;20.20;50.70;;;;;;1502451;77;1131;-76
2024/03/09 11:05:01;;;;;;;;;;;20.20;50.70;;;;;;1492790;78;1522;-77
2024/03/09 11:07:02;;;;;;;;;;;20.10;50.70;;;;;;1498855;77;853;-75
2024/03/09 11:09:10;;;;;;;;;;;20.10;50.60;;;;;;1498033;78;692;-77
2024/03/09 11:11:08;;;;;;;;;;;20.10;50.60;;;;;;1506039;78;948;-76
2024/03/09 11:13:11;;;;;;;;;;;20.10;50.60;;;;;;1500221;78;1078;-77
2024/03/09 11:15:13;;;;;;;;;;;20.10;50.60;;;;;;1496565;78;1934;-76
2024/03/09 11:17:15;;;;;;;;;;;20.10;50.60;;;;;;1498079;78;806;-75
2024/03/09 11:19:18;;;;;;;;;;;20.10;50.60;;;;;;1472549;79;1219;-76
2024/03/09 11:21:26;;;;;;;;;;;20.20;50.60;;;;;;1504475;78;759;-78
2024/03/09 11:23:30;;;;;;;;;;;20.10;50.60;;;;;;1495545;78;1709;-71
2024/03/09 11:25:37;;;;;;;;;;;20.10;50.60;;;;;;1494386;78;723;-77
2024/03/09 11:27:40;;;;;;;;;;;20.10;50.50;;;;;;1509082;78;1131;-76
2024/03/09 11:29:43;;;;;;;;;;;20.10;50.60;;;;;;1503407;78;762;-74
2024/03/09 11:31:47;;;;;;;;;;;20.10;50.60;;;;;;1502178;78;1145;-76
2024/03/09 11:33:50;;;;;;;;;;;20.10;50.50;;;;;;1502462;78;1631;-76
2024/03/09 11:35:52;;;;;;;;;;;20.10;50.50;;;;;;1502453;78;1949;-76
2024/03/09 11:37:59;;;;;;;;;;;20.20;50.60;;;;;;1499547;78;731;-76
2024/03/09 11:40:00;;;;;;;;;;;20.10;50.50;;;;;;1496269;78;1506;-77
2024/03/09 11:42:11;;;;;;;;;;;20.10;50.50;;;;;;1501886;78;1254;-79
2024/03/09 11:44:14;;;;;;;;;;;20.10;50.50;;;;;;1496789;78;741;-76
2024/03/09 11:46:16;;;;;;;;;;;20.10;50.50;;;;;;1499555;78;1061;-76
2024/03/09 11:48:21;;;;;;;;;;;20.10;50.50;;;;;;1500348;78;704;-75
2024/03/09 11:50:22;;;;;;;;;;;20.10;50.50;;;;;;1507109;78;1676;-77
2024/03/09 11:52:26;;;;;;;;;;;20.00;50.30;;;;;;1513632;78;1104;-75
2024/03/09 11:54:27;;;;;;;;;;;20.20;50.50;;;;;;1501654;77;1696;-77
2024/03/09 11:56:32;;;;;;;;;;;20.10;50.50;;;;;;1497325;78;1936;-72
2024/03/09 11:58:34;;;;;;;;;;;20.10;50.50;;;;;;1509731;78;725;-76
2024/03/09 12:00:36;;;;;;;;;;;20.10;50.50;;;;;;1498212;78;814;-77
2024/03/09 12:02:38;;;;;;;;;;;20.10;50.50;;;;;;1498467;78;1320;-76
2024/03/09 12:04:41;;;;;;;;;;;20.10;50.50;;;;;;1493219;78;724;-77
2024/03/09 12:06:43;;;;;;;;;;;20.10;50.50;;;;;;1505724;78;759;-77
2024/03/09 12:08:45;;;;;;;;;;;20.20;50.50;;;;;;1511760;78;755;-78
2024/03/09 12:10:47;;;;;;;;;;;20.20;50.50;;;;;;1503757;78;645;-76